createdAt,value
2017-07-04T00:00:00.811Z,49.00
2017-07-04T00:02:28.339Z,49.00
2017-07-04T00:04:55.868Z,48.90
2017-07-04T00:07:23.745Z,49.00
2017-07-04T00:09:51.256Z,49.00
2017-07-04T00:12:18.760Z,49.00
2017-07-04T00:14:46.729Z,49.00
2017-07-04T00:17:14.228Z,49.00
2017-07-04T00:19:41.733Z,49.60
2017-07-04T00:22:09.626Z,49.10
2017-07-04T00:24:37.163Z,49.10
2017-07-04T00:27:04.681Z,49.30
2017-07-04T00:29:32.498Z,49.50
2017-07-04T00:32:00.012Z,49.70
2017-07-04T00:34:27.521Z,49.70
2017-07-04T00:36:55.390Z,49.80
2017-07-04T00:39:22.907Z,49.90
2017-07-04T00:41:50.439Z,49.90
2017-07-04T00:44:18.247Z,49.90
2017-07-04T00:46:45.769Z,49.80
2017-07-04T00:49:13.284Z,49.70
2017-07-04T00:51:41.260Z,49.60
2017-07-04T00:54:08.777Z,49.50
2017-07-04T00:56:36.293Z,49.30
2017-07-04T00:59:04.174Z,49.10
2017-07-04T01:01:31.687Z,49.50
2017-07-04T01:03:59.195Z,48.80
2017-07-04T01:06:27.165Z,48.70
2017-07-04T01:08:54.683Z,48.70
2017-07-04T01:11:22.186Z,48.90
2017-07-04T01:13:49.983Z,48.80
2017-07-04T01:16:18.305Z,48.80
2017-07-04T01:18:45.831Z,48.80
2017-07-04T01:21:14.484Z,48.90
2017-07-04T01:23:42.013Z,48.90
2017-07-04T01:26:09.580Z,48.90
2017-07-04T01:28:37.496Z,48.90
2017-07-04T01:31:05.018Z,48.90
2017-07-04T01:33:32.571Z,48.90
2017-07-04T01:36:00.442Z,49.00
2017-07-04T01:38:27.932Z,49.00
2017-07-04T01:40:55.470Z,49.10
2017-07-04T01:43:23.291Z,49.00
2017-07-04T01:45:51.602Z,49.00
2017-07-04T01:48:19.111Z,49.00
2017-07-04T01:50:47.033Z,49.00
2017-07-04T01:53:14.546Z,48.90
2017-07-04T01:55:42.809Z,49.20
2017-07-04T01:58:11.554Z,49.30
2017-07-04T02:00:39.073Z,49.40
2017-07-04T02:03:07.372Z,49.40
2017-07-04T02:05:35.197Z,49.40
2017-07-04T02:08:02.702Z,49.40
2017-07-04T02:10:30.209Z,49.50
2017-07-04T02:12:58.121Z,49.50
2017-07-04T02:15:25.651Z,49.40
2017-07-04T02:17:53.170Z,49.40
2017-07-04T02:20:21.106Z,49.40
2017-07-04T02:22:48.626Z,49.30
2017-07-04T02:25:16.134Z,49.30
2017-07-04T02:27:44.129Z,49.30
2017-07-04T02:30:11.629Z,49.40
2017-07-04T02:32:39.910Z,49.50
2017-07-04T02:35:07.719Z,49.40
2017-07-04T02:37:35.237Z,49.40
2017-07-04T02:40:02.748Z,49.50
2017-07-04T02:42:30.738Z,49.60
2017-07-04T02:44:58.286Z,49.70
2017-07-04T02:47:25.867Z,49.70
2017-07-04T02:49:53.664Z,49.80
2017-07-04T02:52:21.965Z,49.90
2017-07-04T02:54:49.480Z,49.90
2017-07-04T02:57:17.325Z,50.00
2017-07-04T02:59:44.841Z,50.00
2017-07-04T03:02:12.354Z,50.10
2017-07-04T03:04:40.398Z,50.20
2017-07-04T03:07:07.937Z,50.30
2017-07-04T03:09:35.480Z,50.40
2017-07-04T03:12:03.381Z,50.50
2017-07-04T03:14:30.906Z,50.50
2017-07-04T03:16:58.438Z,50.70
2017-07-04T03:19:26.294Z,50.70
2017-07-04T03:21:53.802Z,50.80
2017-07-04T03:24:21.292Z,50.90
2017-07-04T03:26:49.173Z,51.10
2017-07-04T03:29:16.692Z,51.20
2017-07-04T03:31:44.198Z,51.40
2017-07-04T03:34:12.051Z,51.40
2017-07-04T03:36:39.559Z,51.60
2017-07-04T03:39:07.046Z,51.80
2017-07-04T03:41:34.939Z,52.00
2017-07-04T03:44:02.451Z,52.30
2017-07-04T03:46:30.714Z,52.50
2017-07-04T03:48:58.631Z,52.50
2017-07-04T03:51:26.139Z,52.70
2017-07-04T03:53:54.451Z,53.70
2017-07-04T03:56:22.273Z,54.00
2017-07-04T03:58:49.795Z,54.60
2017-07-04T04:01:17.316Z,55.10
2017-07-04T04:03:45.141Z,55.80
2017-07-04T04:06:12.640Z,56.30
2017-07-04T04:08:40.125Z,56.90
2017-07-04T04:11:08.117Z,57.40
2017-07-04T04:13:35.630Z,57.70
2017-07-04T04:16:03.892Z,58.40
2017-07-04T04:18:31.721Z,58.40
2017-07-04T04:20:59.214Z,58.60
2017-07-04T04:23:26.733Z,58.90
2017-07-04T04:25:54.595Z,59.00
2017-07-04T04:28:22.108Z,59.20
2017-07-04T04:30:49.638Z,59.60
2017-07-04T04:33:17.591Z,59.70
2017-07-04T04:35:45.107Z,59.70
2017-07-04T04:38:12.595Z,59.50
2017-07-04T04:40:40.838Z,59.60
2017-07-04T04:43:08.339Z,59.70
2017-07-04T04:45:35.849Z,59.70
2017-07-04T04:48:03.703Z,59.70
2017-07-04T04:50:31.209Z,59.90
2017-07-04T04:52:58.710Z,60.10
2017-07-04T04:55:26.577Z,60.30
2017-07-04T04:57:54.106Z,60.40
2017-07-04T05:00:21.687Z,60.60
2017-07-04T05:02:49.639Z,60.80
2017-07-04T05:05:17.169Z,61.00
2017-07-04T05:07:45.460Z,61.00
2017-07-04T05:10:14.066Z,61.20
2017-07-04T05:12:41.579Z,61.20
2017-07-04T05:15:09.096Z,61.20
2017-07-04T05:17:36.918Z,61.30
2017-07-04T05:20:05.205Z,61.50
2017-07-04T05:22:33.509Z,61.50
2017-07-04T05:25:01.389Z,61.50
2017-07-04T05:27:28.899Z,61.40
2017-07-04T05:29:56.414Z,61.30
2017-07-04T05:32:24.198Z,61.40
2017-07-04T05:34:51.714Z,61.40
2017-07-04T05:37:19.234Z,61.30
2017-07-04T05:39:47.044Z,61.40
2017-07-04T05:42:14.543Z,61.50
2017-07-04T05:44:42.042Z,61.50
2017-07-04T05:47:10.044Z,61.30
2017-07-04T05:49:37.566Z,61.20
2017-07-04T05:52:05.069Z,61.10
2017-07-04T05:54:32.948Z,61.20
2017-07-04T05:57:00.514Z,61.30
2017-07-04T05:59:28.038Z,61.20
2017-07-04T06:01:56.018Z,61.10
2017-07-04T06:04:23.513Z,61.00
2017-07-04T06:06:51.030Z,61.10
2017-07-04T06:09:18.895Z,61.00
2017-07-04T06:11:46.409Z,60.80
2017-07-04T06:14:13.930Z,60.90
2017-07-04T06:16:41.750Z,60.80
2017-07-04T06:19:09.268Z,60.80
2017-07-04T06:21:36.757Z,60.80
2017-07-04T06:24:04.568Z,60.70
2017-07-04T06:26:32.066Z,60.50
2017-07-04T06:28:59.581Z,60.30
2017-07-04T06:31:27.410Z,60.10
2017-07-04T06:33:54.925Z,60.00
2017-07-04T06:36:22.443Z,59.90
2017-07-04T06:38:50.253Z,59.40
2017-07-04T06:41:17.759Z,59.00
2017-07-04T06:43:45.274Z,59.00
2017-07-04T06:46:13.132Z,58.80
2017-07-04T06:48:40.627Z,58.40
2017-07-04T06:51:08.134Z,58.00
2017-07-04T06:53:36.023Z,57.70
2017-07-04T06:56:03.524Z,57.60
2017-07-04T06:58:31.028Z,57.10
2017-07-04T07:00:58.840Z,57.20
2017-07-04T07:03:26.360Z,56.90
2017-07-04T07:05:53.917Z,56.90
2017-07-04T07:08:21.779Z,56.80
2017-07-04T07:10:49.285Z,56.90
2017-07-04T07:13:16.832Z,56.90
2017-07-04T07:15:44.657Z,56.40
2017-07-04T07:18:12.169Z,56.20
2017-07-04T07:20:39.673Z,56.00
2017-07-04T07:23:07.495Z,55.70
2017-07-04T07:25:35.015Z,55.60
2017-07-04T07:28:02.529Z,55.70
2017-07-04T07:30:30.344Z,55.70
2017-07-04T07:32:57.854Z,55.40
2017-07-04T07:35:25.380Z,55.40
2017-07-04T07:37:53.343Z,55.30
2017-07-04T07:40:21.003Z,55.00
2017-07-04T07:42:49.347Z,55.10
2017-07-04T07:45:17.241Z,55.00
2017-07-04T07:47:44.754Z,55.00
2017-07-04T07:50:12.271Z,54.80
2017-07-04T07:52:40.238Z,54.30
2017-07-04T07:55:07.739Z,54.20
2017-07-04T07:57:35.267Z,54.10
2017-07-04T08:00:03.127Z,54.20
2017-07-04T08:02:30.662Z,54.30
2017-07-04T08:04:58.198Z,54.30
2017-07-04T08:07:26.830Z,53.80
2017-07-04T08:09:54.339Z,53.80
2017-07-04T08:12:21.833Z,53.40
2017-07-04T08:14:49.727Z,53.40
2017-07-04T08:17:17.242Z,53.20
2017-07-04T08:19:44.754Z,53.00
2017-07-04T08:22:12.593Z,52.90
2017-07-04T08:24:40.110Z,53.00
2017-07-04T08:27:07.631Z,53.10
2017-07-04T08:29:36.300Z,53.30
2017-07-04T08:32:03.797Z,53.30
2017-07-04T08:34:31.301Z,53.10
2017-07-04T08:36:59.304Z,52.70
2017-07-04T08:39:26.862Z,52.10
2017-07-04T08:41:54.372Z,51.60
2017-07-04T08:44:22.290Z,51.40
2017-07-04T08:46:49.799Z,51.30
2017-07-04T08:49:17.328Z,50.50
2017-07-04T08:51:45.165Z,50.20
2017-07-04T08:54:12.694Z,50.00
2017-07-04T08:56:40.229Z,50.10
2017-07-04T08:59:08.069Z,49.90
2017-07-04T09:01:35.582Z,49.70
2017-07-04T09:04:03.098Z,49.20
2017-07-04T09:06:30.938Z,49.10
2017-07-04T09:08:58.440Z,48.90
2017-07-04T09:11:25.978Z,49.10
2017-07-04T09:13:53.922Z,49.20
2017-07-04T09:16:21.442Z,48.90
2017-07-04T09:18:48.982Z,48.90
2017-07-04T09:21:16.839Z,48.60
2017-07-04T09:23:44.353Z,48.40
2017-07-04T09:26:11.883Z,48.30
2017-07-04T09:28:39.817Z,48.50
2017-07-04T09:31:07.343Z,48.60
2017-07-04T09:33:34.863Z,48.20
2017-07-04T09:36:02.700Z,48.30
2017-07-04T09:38:30.238Z,48.40
2017-07-04T09:40:57.767Z,48.70
2017-07-04T09:43:25.794Z,48.70
2017-07-04T09:45:53.316Z,48.50
2017-07-04T09:48:20.844Z,47.90
2017-07-04T09:50:48.709Z,47.40
2017-07-04T09:53:16.214Z,47.20
2017-07-04T09:55:43.734Z,47.40
2017-07-04T09:58:11.542Z,47.60
2017-07-04T10:00:39.081Z,47.50
2017-07-04T10:03:06.598Z,47.30
2017-07-04T10:05:34.444Z,47.20
2017-07-04T10:08:01.977Z,47.10
2017-07-04T10:10:29.507Z,47.10
2017-07-04T10:12:57.333Z,47.10
2017-07-04T10:15:24.839Z,47.00
2017-07-04T10:17:52.361Z,46.80
2017-07-04T10:20:20.163Z,46.80
2017-07-04T10:22:47.659Z,46.50
2017-07-04T10:25:15.182Z,46.00
2017-07-04T10:27:42.980Z,46.30
2017-07-04T10:30:10.512Z,46.40
2017-07-04T10:32:38.009Z,46.40
2017-07-04T10:35:05.949Z,45.60
2017-07-04T10:37:33.459Z,45.30
2017-07-04T10:40:00.988Z,45.30
2017-07-04T10:42:28.800Z,45.30
2017-07-04T10:44:56.299Z,44.90
2017-07-04T10:47:23.815Z,44.40
2017-07-04T10:49:51.752Z,44.50
2017-07-04T10:52:19.279Z,44.70
2017-07-04T10:54:46.820Z,44.80
2017-07-04T10:57:14.671Z,44.70
2017-07-04T10:59:42.194Z,44.70
2017-07-04T11:02:09.714Z,44.70
2017-07-04T11:04:37.552Z,44.80
2017-07-04T11:07:05.095Z,44.40
2017-07-04T11:09:32.603Z,44.30
2017-07-04T11:12:00.419Z,44.60
2017-07-04T11:14:27.927Z,44.60
2017-07-04T11:16:55.466Z,44.50
2017-07-04T11:19:23.387Z,44.80
2017-07-04T11:21:50.894Z,45.00
2017-07-04T11:24:18.453Z,45.20
2017-07-04T11:26:46.300Z,45.30
2017-07-04T11:29:13.838Z,45.30
2017-07-04T11:31:41.365Z,45.20
2017-07-04T11:34:09.286Z,44.90
2017-07-04T11:36:36.814Z,44.60
2017-07-04T11:39:04.324Z,44.30
2017-07-04T11:41:32.137Z,43.30
2017-07-04T11:43:59.654Z,42.40
2017-07-04T11:46:27.179Z,41.70
2017-07-04T11:48:54.980Z,41.30
2017-07-04T11:51:22.493Z,40.60
2017-07-04T11:53:50.799Z,40.10
2017-07-04T11:56:18.649Z,39.40
2017-07-04T11:58:46.169Z,39.00
2017-07-04T12:01:13.703Z,39.60
2017-07-04T12:03:41.556Z,39.80
2017-07-04T12:06:09.058Z,39.60
2017-07-04T12:08:36.591Z,39.10
2017-07-04T12:11:04.400Z,38.70
2017-07-04T12:13:32.691Z,38.60
2017-07-04T12:16:00.216Z,38.50
2017-07-04T12:18:28.037Z,37.90
2017-07-04T12:20:55.546Z,36.90
2017-07-04T12:23:23.061Z,37.10
2017-07-04T12:25:50.928Z,37.40
2017-07-04T12:28:18.454Z,38.00
2017-07-04T12:30:46.768Z,39.30
2017-07-04T12:33:14.617Z,39.20
2017-07-04T12:35:42.183Z,38.50
2017-07-04T12:38:09.701Z,37.60
2017-07-04T12:40:37.508Z,37.20
2017-07-04T12:43:05.023Z,36.10
2017-07-04T12:45:32.538Z,35.10
2017-07-04T12:48:00.345Z,34.00
2017-07-04T12:50:27.914Z,32.70
2017-07-04T12:52:55.474Z,32.40
2017-07-04T12:55:23.285Z,32.00
2017-07-04T12:57:50.817Z,32.00
2017-07-04T13:00:18.344Z,31.50
2017-07-04T13:02:46.148Z,31.10
2017-07-04T13:05:13.685Z,31.00
2017-07-04T13:07:41.201Z,30.60
2017-07-04T13:10:09.070Z,30.10
2017-07-04T13:12:36.564Z,29.90
2017-07-04T13:15:04.100Z,29.90
2017-07-04T13:17:31.968Z,29.60
2017-07-04T13:19:59.502Z,29.00
2017-07-04T13:22:27.044Z,29.00
2017-07-04T13:24:55.652Z,28.20
2017-07-04T13:27:23.179Z,28.20
2017-07-04T13:29:50.694Z,28.00
2017-07-04T13:32:18.519Z,28.20
2017-07-04T13:34:46.048Z,28.20
2017-07-04T13:37:13.563Z,28.10
2017-07-04T13:39:41.490Z,28.20
2017-07-04T13:42:09.055Z,28.20
2017-07-04T13:44:37.320Z,28.60
2017-07-04T13:47:05.912Z,28.90
2017-07-04T13:49:33.435Z,28.90
2017-07-04T13:52:00.960Z,29.00
2017-07-04T13:54:28.806Z,28.70
2017-07-04T13:56:56.320Z,28.40
2017-07-04T13:59:23.850Z,28.40
2017-07-04T14:01:51.632Z,27.90
2017-07-04T14:04:19.142Z,27.90
2017-07-04T14:06:46.685Z,28.30
2017-07-04T14:09:14.533Z,28.40
2017-07-04T14:11:42.096Z,28.50
2017-07-04T14:14:09.604Z,28.30
2017-07-04T14:16:38.222Z,28.70
2017-07-04T14:19:05.739Z,28.20
2017-07-04T14:21:33.257Z,28.60
2017-07-04T14:24:01.226Z,28.60
2017-07-04T14:26:28.797Z,28.50
2017-07-04T14:28:56.286Z,28.40
2017-07-04T14:31:24.222Z,28.30
2017-07-04T14:33:51.777Z,28.10
2017-07-04T14:36:19.292Z,28.10
2017-07-04T14:38:47.345Z,28.00
2017-07-04T14:41:14.865Z,28.10
2017-07-04T14:43:42.412Z,28.00
2017-07-04T14:46:10.279Z,28.60
2017-07-04T14:48:37.900Z,28.10
2017-07-04T14:51:05.459Z,28.10
2017-07-04T14:53:33.478Z,27.90
2017-07-04T14:56:00.979Z,27.90
2017-07-04T14:58:28.504Z,28.00
2017-07-04T15:00:56.404Z,28.30
2017-07-04T15:03:23.940Z,28.80
2017-07-04T15:05:51.469Z,29.20
2017-07-04T15:08:19.366Z,29.10
2017-07-04T15:10:46.882Z,29.50
2017-07-04T15:13:14.409Z,29.70
2017-07-04T15:15:42.359Z,29.30
2017-07-04T15:18:09.866Z,29.40
2017-07-04T15:20:37.380Z,29.70
2017-07-04T15:23:05.202Z,30.20
2017-07-04T15:25:32.736Z,30.60
2017-07-04T15:28:00.266Z,30.40
2017-07-04T15:30:28.115Z,30.40
2017-07-04T15:32:55.647Z,30.00
2017-07-04T15:35:23.169Z,29.70
2017-07-04T15:37:51.083Z,29.50
2017-07-04T15:40:18.587Z,29.10
2017-07-04T15:42:46.208Z,29.00
2017-07-04T15:45:14.108Z,29.00
2017-07-04T15:47:41.630Z,29.10
2017-07-04T15:50:09.154Z,29.10
2017-07-04T15:52:36.959Z,29.20
2017-07-04T15:55:04.477Z,29.50
2017-07-04T15:57:32.003Z,29.90
2017-07-04T15:59:59.876Z,30.30
2017-07-04T16:02:27.405Z,31.10
2017-07-04T16:04:54.918Z,31.20
2017-07-04T16:07:22.723Z,31.40
2017-07-04T16:09:50.248Z,31.60
2017-07-04T16:12:17.770Z,31.60
2017-07-04T16:14:45.583Z,32.10
2017-07-04T16:17:13.109Z,32.50
2017-07-04T16:19:40.625Z,33.20
2017-07-04T16:22:08.449Z,33.60
2017-07-04T16:24:36.001Z,34.10
2017-07-04T16:27:03.547Z,34.40
2017-07-04T16:29:31.498Z,33.90
2017-07-04T16:31:59.032Z,33.30
2017-07-04T16:34:27.318Z,32.30
2017-07-04T16:36:55.212Z,32.30
2017-07-04T16:39:22.745Z,32.30
2017-07-04T16:41:50.255Z,32.50
2017-07-04T16:44:18.094Z,32.60
2017-07-04T16:46:45.628Z,32.10
2017-07-04T16:49:13.149Z,32.10
2017-07-04T16:51:40.988Z,32.30
2017-07-04T16:54:08.525Z,32.20
2017-07-04T16:56:36.090Z,32.00
2017-07-04T16:59:03.979Z,31.50
2017-07-04T17:01:31.493Z,31.00
2017-07-04T17:03:59.024Z,30.80
2017-07-04T17:06:26.878Z,31.30
2017-07-04T17:08:54.411Z,31.90
2017-07-04T17:11:21.935Z,32.30
2017-07-04T17:13:49.745Z,32.20
2017-07-04T17:16:17.251Z,32.00
2017-07-04T17:18:44.761Z,32.10
2017-07-04T17:21:12.635Z,31.80
2017-07-04T17:23:40.174Z,31.40
2017-07-04T17:26:07.698Z,31.30
2017-07-04T17:28:35.641Z,31.40
2017-07-04T17:31:03.156Z,31.60
2017-07-04T17:33:30.692Z,31.70
2017-07-04T17:35:58.537Z,32.00
2017-07-04T17:38:26.091Z,32.60
2017-07-04T17:40:53.645Z,33.00
2017-07-04T17:43:21.455Z,33.20
2017-07-04T17:45:48.984Z,33.30
2017-07-04T17:48:16.519Z,33.50
2017-07-04T17:50:44.363Z,33.70
2017-07-04T17:53:11.885Z,34.20
2017-07-04T17:55:39.404Z,34.70
2017-07-04T17:58:07.254Z,34.90
2017-07-04T18:00:34.781Z,35.00
2017-07-04T18:03:02.291Z,34.70
2017-07-04T18:05:30.162Z,34.40
2017-07-04T18:07:57.677Z,34.10
2017-07-04T18:10:25.212Z,33.90
2017-07-04T18:12:53.147Z,34.10
2017-07-04T18:15:20.654Z,34.40
2017-07-04T18:17:48.217Z,34.70
2017-07-04T18:20:16.056Z,35.10
2017-07-04T18:22:43.566Z,35.40
2017-07-04T18:25:11.087Z,35.90
2017-07-04T18:27:39.034Z,36.30
2017-07-04T18:30:06.567Z,36.50
2017-07-04T18:32:34.088Z,36.90
2017-07-04T18:35:01.908Z,37.00
2017-07-04T18:37:29.449Z,37.20
2017-07-04T18:39:56.992Z,37.40
2017-07-04T18:42:25.589Z,37.60
2017-07-04T18:44:53.118Z,37.60
2017-07-04T18:47:20.652Z,37.90
2017-07-04T18:49:48.474Z,37.90
2017-07-04T18:52:16.000Z,38.30
2017-07-04T18:54:43.521Z,38.50
2017-07-04T18:57:11.393Z,38.70
2017-07-04T18:59:38.921Z,39.00
2017-07-04T19:02:06.473Z,39.10
2017-07-04T19:04:34.376Z,39.30
2017-07-04T19:07:01.882Z,39.50
2017-07-04T19:09:29.413Z,39.70
2017-07-04T19:11:57.216Z,39.90
2017-07-04T19:14:24.723Z,40.10
2017-07-04T19:16:52.238Z,40.30
2017-07-04T19:19:20.062Z,40.40
2017-07-04T19:21:47.584Z,40.50
2017-07-04T19:24:15.110Z,40.60
2017-07-04T19:26:43.037Z,41.00
2017-07-04T19:29:10.579Z,41.10
2017-07-04T19:31:38.120Z,41.30
2017-07-04T19:34:06.053Z,41.50
2017-07-04T19:36:33.580Z,41.60
2017-07-04T19:39:01.100Z,41.80
2017-07-04T19:41:29.755Z,42.30
2017-07-04T19:43:57.309Z,42.20
2017-07-04T19:46:24.860Z,42.40
2017-07-04T19:48:52.767Z,42.60
2017-07-04T19:51:21.066Z,43.50
2017-07-04T19:53:49.364Z,43.10
2017-07-04T19:56:17.182Z,43.10
2017-07-04T19:58:44.718Z,43.10
2017-07-04T20:01:12.251Z,43.20
2017-07-04T20:03:40.132Z,43.40
2017-07-04T20:06:07.673Z,43.60
2017-07-04T20:08:35.247Z,43.70
2017-07-04T20:11:03.113Z,43.90
2017-07-04T20:13:30.679Z,44.00
2017-07-04T20:15:58.204Z,44.00
2017-07-04T20:18:26.846Z,44.10
2017-07-04T20:20:54.388Z,44.20
2017-07-04T20:23:21.914Z,44.20
2017-07-04T20:25:49.803Z,44.20
2017-07-04T20:28:17.319Z,44.30
2017-07-04T20:30:44.865Z,44.40
2017-07-04T20:33:12.689Z,44.40
2017-07-04T20:35:40.223Z,44.40
2017-07-04T20:38:08.563Z,44.30
2017-07-04T20:40:36.420Z,44.40
2017-07-04T20:43:03.973Z,44.40
2017-07-04T20:45:31.495Z,44.50
2017-07-04T20:47:59.444Z,44.50
2017-07-04T20:50:27.743Z,44.80
2017-07-04T20:52:56.026Z,44.80
2017-07-04T20:55:23.858Z,44.80
2017-07-04T20:57:51.404Z,45.00
2017-07-04T21:00:18.922Z,45.20
2017-07-04T21:02:46.768Z,45.20
2017-07-04T21:05:15.043Z,45.10
2017-07-04T21:07:42.588Z,45.10
2017-07-04T21:10:10.526Z,45.20
2017-07-04T21:12:38.048Z,45.20
2017-07-04T21:15:05.567Z,45.20
2017-07-04T21:17:33.380Z,45.50
2017-07-04T21:20:00.906Z,45.50
2017-07-04T21:22:28.426Z,45.70
2017-07-04T21:24:56.279Z,45.70
2017-07-04T21:27:23.800Z,46.00
2017-07-04T21:29:51.303Z,46.10
2017-07-04T21:32:19.182Z,46.10
2017-07-04T21:34:46.699Z,46.10
2017-07-04T21:37:14.219Z,46.40
2017-07-04T21:39:42.039Z,46.50
2017-07-04T21:42:09.931Z,46.50
2017-07-04T21:44:37.464Z,46.00
2017-07-04T21:47:05.285Z,45.80
2017-07-04T21:49:32.818Z,46.10
2017-07-04T21:52:00.324Z,46.30
2017-07-04T21:54:28.975Z,46.80
2017-07-04T21:56:56.527Z,46.70
2017-07-04T21:59:24.022Z,47.00
2017-07-04T22:01:51.831Z,47.00
2017-07-04T22:04:19.361Z,47.00
2017-07-04T22:06:47.652Z,47.50
2017-07-04T22:09:16.253Z,47.70
2017-07-04T22:11:43.785Z,47.70
2017-07-04T22:14:12.070Z,46.30
2017-07-04T22:16:40.635Z,46.10
2017-07-04T22:19:08.146Z,46.10
2017-07-04T22:21:35.671Z,46.20
2017-07-04T22:24:04.284Z,46.40
2017-07-04T22:26:31.807Z,46.40
2017-07-04T22:29:00.096Z,46.70
2017-07-04T22:31:27.903Z,46.70
2017-07-04T22:33:55.394Z,46.70
2017-07-04T22:36:22.889Z,46.70
2017-07-04T22:38:50.799Z,46.80
2017-07-04T22:41:18.304Z,47.00
2017-07-04T22:43:46.601Z,46.70
2017-07-04T22:46:14.487Z,46.60
2017-07-04T22:48:42.009Z,46.50
2017-07-04T22:51:10.305Z,46.90
2017-07-04T22:53:38.191Z,46.90
2017-07-04T22:56:05.723Z,47.00
2017-07-04T22:58:33.998Z,47.00
2017-07-04T23:01:01.888Z,47.00
2017-07-04T23:03:29.409Z,47.00
2017-07-04T23:05:57.696Z,47.70
2017-07-04T23:08:26.343Z,47.10
2017-07-04T23:10:53.846Z,47.00
2017-07-04T23:13:22.118Z,47.20
2017-07-04T23:15:50.733Z,47.60
2017-07-04T23:18:18.271Z,47.60
2017-07-04T23:20:45.847Z,48.00
2017-07-04T23:23:13.744Z,48.10
2017-07-04T23:25:41.262Z,48.30
2017-07-04T23:28:08.775Z,48.50
2017-07-04T23:30:36.619Z,48.90
2017-07-04T23:33:04.122Z,48.90
2017-07-04T23:35:31.652Z,48.80
2017-07-04T23:37:59.596Z,49.00
2017-07-04T23:40:27.111Z,49.20
2017-07-04T23:42:54.610Z,49.50
2017-07-04T23:45:22.498Z,49.60
2017-07-04T23:47:50.043Z,49.60
2017-07-04T23:50:17.564Z,49.80
2017-07-04T23:52:46.177Z,50.40
2017-07-04T23:55:13.683Z,50.40
2017-07-04T23:57:41.219Z,50.70
